Time;durP1;ratioP1;P1;durP2;ratioP2;P2;SDS_P1;SDS_P2;PMS_P1;PMS_P2;Temp;Humidity;BMP_temperature;BMP_pressure;BME280_temperature;BME280_humidity;BME280_pressure;Samples;Min_cycle;Max_cycle;Signal;HPM_P1;HPM_P2
2023/07/20 00:01:13;;;;;;;0.40;0.40;;;17.70;99.90;;;;;;4426025;32;20034;-62
2023/07/20 00:03:39;;;;;;;0.40;0.40;;;17.60;99.90;;;;;;4415811;32;20558;-63
2023/07/20 00:06:04;;;;;;;0.90;0.85;;;17.70;99.90;;;;;;4418244;32;20062;-63
2023/07/20 00:08:30;;;;;;;0.20;0.20;;;17.60;99.90;;;;;;4427332;32;20061;-63
2023/07/20 00:10:56;;;;;;;0.62;0.40;;;17.60;99.90;;;;;;4410668;32;20086;-63
2023/07/20 00:13:21;;;;;;;0.35;0.35;;;17.50;99.90;;;;;;4415801;32;20069;-63
2023/07/20 00:15:47;;;;;;;0.57;0.57;;;17.40;99.90;;;;;;4417882;32;20058;-63
2023/07/20 00:18:13;;;;;;;0.32;0.32;;;17.50;99.90;;;;;;4415341;32;20070;-63
2023/07/20 00:20:39;;;;;;;0.35;0.35;;;17.60;99.90;;;;;;4417623;32;20070;-64
2023/07/20 00:23:04;;;;;;;0.32;0.32;;;17.60;99.90;;;;;;4419988;32;20065;-61
2023/07/20 00:25:30;;;;;;;0.20;0.20;;;17.60;99.90;;;;;;4416224;32;20086;-63
2023/07/20 00:27:55;;;;;;;0.20;0.20;;;17.60;99.90;;;;;;4418454;32;20095;-62
2023/07/20 00:30:21;;;;;;;0.37;0.37;;;17.60;99.90;;;;;;4400989;32;20070;-64
2023/07/20 00:32:46;;;;;;;0.40;0.40;;;17.60;99.90;;;;;;4405012;32;20483;-63
2023/07/20 00:35:13;;;;;;;0.40;0.40;;;17.60;99.90;;;;;;4412187;32;20125;-63
2023/07/20 00:37:39;;;;;;;0.40;0.40;;;17.60;99.90;;;;;;4398606;32;20063;-64
2023/07/20 00:40:07;;;;;;;0.30;0.30;;;17.50;99.90;;;;;;4390626;32;20415;-64
2023/07/20 00:42:32;;;;;;;0.30;0.30;;;17.50;99.90;;;;;;4408858;32;20065;-63
2023/07/20 00:44:58;;;;;;;0.40;0.40;;;17.40;99.90;;;;;;4395760;32;20094;-64
2023/07/20 00:47:23;;;;;;;0.40;0.40;;;17.40;99.90;;;;;;4399615;32;20075;-63
2023/07/20 00:49:50;;;;;;;0.50;0.50;;;17.50;99.90;;;;;;4401873;32;20534;-64
2023/07/20 00:52:16;;;;;;;0.40;0.40;;;17.40;99.90;;;;;;4399237;32;20077;-64
2023/07/20 00:54:41;;;;;;;0.50;0.50;;;17.50;99.90;;;;;;4411779;32;20129;-64
2023/07/20 00:57:07;;;;;;;0.37;0.37;;;17.50;99.90;;;;;;4399806;32;20182;-64
2023/07/20 00:59:34;;;;;;;2.17;1.02;;;17.40;99.90;;;;;;4401075;32;20073;-63
2023/07/20 01:01:59;;;;;;;0.32;0.32;;;17.30;99.90;;;;;;4398664;32;20090;-64
2023/07/20 01:04:28;;;;;;;0.43;0.43;;;17.30;99.90;;;;;;4399279;32;20082;-64
2023/07/20 01:07:02;;;;;;;0.30;0.30;;;17.30;99.90;;;;;;4406053;32;20153;-66
2023/07/20 01:10:08;;;;;;;1.20;0.50;;;17.30;99.90;;;;;;4410574;32;20086;-65
2023/07/20 01:12:42;;;;;;;0.30;0.30;;;17.40;99.90;;;;;;4372872;32;20078;-65
2023/07/20 01:15:08;;;;;;;1.12;0.60;;;17.30;99.90;;;;;;4401424;32;20526;-65
2023/07/20 01:17:34;;;;;;;1.20;0.60;;;17.30;99.90;;;;;;4398494;32;20070;-65
2023/07/20 01:20:00;;;;;;;2.62;0.60;;;17.30;99.90;;;;;;4400565;32;20557;-65
2023/07/20 01:22:50;;;;;;;0.43;0.40;;;17.40;99.90;;;;;;4399586;32;20061;-64
2023/07/20 01:25:34;;;;;;;0.43;0.43;;;17.30;99.90;;;;;;4403926;32;20097;-64
2023/07/20 01:28:15;;;;;;;0.50;0.45;;;17.20;99.90;;;;;;4409260;32;20062;-63
2023/07/20 01:31:00;;;;;;;0.32;0.32;;;17.20;99.90;;;;;;4401760;32;20081;-64
2023/07/20 01:33:28;;;;;;;0.32;0.32;;;17.20;99.90;;;;;;4414225;32;20434;-64
2023/07/20 01:35:57;;;;;;;0.20;0.20;;;17.10;99.90;;;;;;4395805;32;20070;-64
2023/07/20 01:38:24;;;;;;;0.30;0.30;;;17.20;99.90;;;;;;4393422;32;20075;-64
2023/07/20 01:40:50;;;;;;;0.52;0.52;;;17.30;99.90;;;;;;4396101;32;20081;-64
2023/07/20 01:43:16;;;;;;;0.40;0.40;;;17.20;99.90;;;;;;4405315;32;20120;-65
2023/07/20 01:45:41;;;;;;;1.05;0.47;;;17.30;99.90;;;;;;4389091;32;20424;-65
2023/07/20 01:48:07;;;;;;;0.30;0.30;;;17.20;99.90;;;;;;4399655;32;20070;-64
2023/07/20 01:50:34;;;;;;;0.30;0.30;;;17.20;99.90;;;;;;4403780;32;20585;-64
2023/07/20 01:53:00;;;;;;;0.35;0.35;;;17.10;99.90;;;;;;4390922;32;20535;-64
2023/07/20 01:55:25;;;;;;;0.82;0.60;;;17.10;99.90;;;;;;4388062;32;20070;-64
2023/07/20 01:57:51;;;;;;;0.40;0.40;;;17.00;99.90;;;;;;4406952;32;20529;-64
2023/07/20 02:00:19;;;;;;;0.30;0.30;;;17.00;99.90;;;;;;4401228;32;20077;-64
2023/07/20 02:02:44;;;;;;;0.40;0.40;;;17.10;99.90;;;;;;4404999;32;20077;-64
2023/07/20 02:05:10;;;;;;;0.60;0.60;;;17.10;99.90;;;;;;4403868;32;20423;-64
2023/07/20 02:07:35;;;;;;;0.40;0.40;;;17.10;99.90;;;;;;4405147;32;20071;-65
2023/07/20 02:10:00;;;;;;;0.80;0.70;;;17.00;99.90;;;;;;4401949;32;20132;-66
2023/07/20 02:12:26;;;;;;;0.32;0.32;;;16.90;99.90;;;;;;4402869;32;20086;-64
2023/07/20 02:14:52;;;;;;;0.40;0.40;;;16.90;99.90;;;;;;4406807;32;20424;-65
2023/07/20 02:17:18;;;;;;;7.87;0.73;;;16.90;99.90;;;;;;4402145;32;20078;-65
2023/07/20 02:19:43;;;;;;;0.50;0.50;;;16.90;99.90;;;;;;4398631;32;20416;-65
2023/07/20 02:22:09;;;;;;;0.45;0.45;;;16.70;99.90;;;;;;4398922;32;20530;-65
2023/07/20 02:24:34;;;;;;;0.40;0.40;;;16.80;99.90;;;;;;4407094;32;20090;-65
2023/07/20 02:27:00;;;;;;;0.43;0.43;;;16.80;99.90;;;;;;4409195;32;20077;-66
2023/07/20 02:29:25;;;;;;;0.40;0.40;;;16.70;99.90;;;;;;4398524;32;20073;-65
2023/07/20 02:31:51;;;;;;;0.65;0.35;;;16.70;99.90;;;;;;4404137;32;20085;-64
2023/07/20 02:34:16;;;;;;;0.40;0.40;;;16.70;99.90;;;;;;4414842;32;20082;-63
2023/07/20 02:36:42;;;;;;;0.55;0.52;;;16.70;99.90;;;;;;4417793;32;20054;-62
2023/07/20 02:39:08;;;;;;;0.40;0.40;;;16.60;99.90;;;;;;4415237;32;20054;-64
2023/07/20 02:41:34;;;;;;;0.40;0.37;;;16.50;99.90;;;;;;4410751;32;20086;-62
2023/07/20 02:44:01;;;;;;;0.30;0.30;;;16.50;99.90;;;;;;4418987;32;20125;-61
2023/07/20 02:46:26;;;;;;;0.50;0.50;;;16.50;99.90;;;;;;4417464;32;20146;-64
2023/07/20 02:48:52;;;;;;;0.50;0.50;;;16.50;99.90;;;;;;4423184;32;20069;-62
2023/07/20 02:51:17;;;;;;;0.32;0.32;;;16.50;99.90;;;;;;4419522;32;20069;-63
2023/07/20 02:53:43;;;;;;;0.40;0.40;;;16.50;99.90;;;;;;4424388;32;20085;-62
2023/07/20 02:56:08;;;;;;;0.60;0.60;;;16.50;99.90;;;;;;4428182;32;20102;-63
2023/07/20 02:58:38;;;;;;;0.40;0.40;;;16.50;99.90;;;;;;4425091;32;20147;-62
2023/07/20 03:01:04;;;;;;;0.35;0.35;;;16.50;99.90;;;;;;4425064;32;20058;-61
2023/07/20 03:03:29;;;;;;;0.37;0.37;;;16.50;99.90;;;;;;4424435;32;20062;-64
2023/07/20 03:05:55;;;;;;;0.40;0.40;;;16.60;99.90;;;;;;4426071;32;20066;-62
2023/07/20 03:08:21;;;;;;;0.50;0.50;;;16.60;99.90;;;;;;4423741;32;20089;-65
2023/07/20 03:10:47;;;;;;;0.30;0.30;;;16.50;99.90;;;;;;4428650;32;20444;-64
2023/07/20 03:13:14;;;;;;;0.55;0.55;;;16.50;99.90;;;;;;4428985;32;20100;-62
2023/07/20 03:15:39;;;;;;;0.50;0.50;;;16.50;99.90;;;;;;4421421;32;20221;-62
2023/07/20 03:18:05;;;;;;;0.43;0.43;;;16.50;99.90;;;;;;4407024;32;20121;-61
2023/07/20 03:20:31;;;;;;;0.68;0.60;;;16.50;99.90;;;;;;4427876;32;20066;-64
2023/07/20 03:22:56;;;;;;;1.00;0.50;;;16.60;99.90;;;;;;4423806;32;20089;-61
2023/07/20 03:25:22;;;;;;;19.15;0.60;;;16.50;99.90;;;;;;4420872;32;20070;-62
2023/07/20 03:27:48;;;;;;;2.03;0.82;;;16.50;99.90;;;;;;4420668;32;20078;-62
2023/07/20 03:30:13;;;;;;;0.37;0.37;;;16.50;99.90;;;;;;4412830;32;20069;-61
2023/07/20 03:32:39;;;;;;;0.80;0.50;;;16.50;99.90;;;;;;4425849;32;20065;-64
2023/07/20 03:35:05;;;;;;;0.68;0.68;;;16.50;99.90;;;;;;4424942;32;20106;-64
2023/07/20 03:37:30;;;;;;;0.50;0.50;;;16.50;99.90;;;;;;4424115;32;20065;-62
2023/07/20 03:39:56;;;;;;;0.30;0.30;;;16.50;99.90;;;;;;4424558;32;20077;-62
2023/07/20 03:42:22;;;;;;;0.73;0.70;;;16.60;99.90;;;;;;4422231;32;20087;-64
2023/07/20 03:44:48;;;;;;;0.47;0.47;;;16.60;99.90;;;;;;4427997;32;20086;-64
2023/07/20 03:47:13;;;;;;;1.17;0.70;;;16.60;99.90;;;;;;4427657;32;20303;-64
2023/07/20 03:49:39;;;;;;;1.17;1.08;;;16.60;99.90;;;;;;4426479;32;20142;-62
2023/07/20 03:52:05;;;;;;;0.43;0.43;;;16.50;99.90;;;;;;4423647;32;20108;-62
2023/07/20 03:54:30;;;;;;;0.85;0.52;;;16.50;99.90;;;;;;4411565;32;20074;-62
2023/07/20 03:56:56;;;;;;;0.88;0.60;;;16.60;99.90;;;;;;4415647;32;20123;-63
2023/07/20 03:59:21;;;;;;;0.45;0.45;;;16.70;99.90;;;;;;4416362;32;20069;-62
2023/07/20 04:01:46;;;;;;;2.17;0.60;;;16.60;99.90;;;;;;4421614;32;20093;-62
2023/07/20 04:04:13;;;;;;;0.47;0.47;;;16.60;99.90;;;;;;4422852;32;20086;-63
2023/07/20 04:06:38;;;;;;;0.37;0.37;;;16.60;99.90;;;;;;4399605;32;20082;-61
2023/07/20 04:09:05;;;;;;;0.47;0.47;;;16.70;99.90;;;;;;4419692;32;20132;-62
2023/07/20 04:11:30;;;;;;;3.15;0.75;;;16.70;99.90;;;;;;4418088;32;20049;-62
2023/07/20 04:13:56;;;;;;;0.43;0.43;;;16.60;99.90;;;;;;4421769;32;20059;-64
2023/07/20 04:16:21;;;;;;;0.52;0.52;;;16.70;99.90;;;;;;4423101;32;20061;-62
2023/07/20 04:18:47;;;;;;;0.40;0.40;;;16.70;99.90;;;;;;4409764;32;20066;-63
2023/07/20 04:21:12;;;;;;;0.55;0.55;;;16.70;99.90;;;;;;4420405;32;20501;-61
2023/07/20 04:23:38;;;;;;;5.47;1.37;;;16.60;99.90;;;;;;4417126;32;20066;-62
2023/07/20 04:26:04;;;;;;;0.30;0.30;;;16.70;99.90;;;;;;4423586;32;20148;-61
2023/07/20 04:28:30;;;;;;;0.47;0.47;;;16.70;99.90;;;;;;4416755;32;20124;-64
2023/07/20 04:31:10;;;;;;;0.50;0.50;;;16.70;99.90;;;;;;4412721;32;20069;-65
2023/07/20 04:33:35;;;;;;;0.60;0.60;;;16.60;99.90;;;;;;4412562;32;20097;-66
2023/07/20 04:36:01;;;;;;;0.55;0.55;;;16.60;99.90;;;;;;4403660;32;20062;-65
2023/07/20 04:38:26;;;;;;;0.37;0.37;;;16.60;99.90;;;;;;4405693;32;20532;-65
2023/07/20 04:40:52;;;;;;;0.55;0.55;;;16.60;99.90;;;;;;4413693;32;20491;-66
2023/07/20 04:43:18;;;;;;;0.30;0.30;;;16.60;99.90;;;;;;4404891;32;20125;-65
2023/07/20 04:45:43;;;;;;;0.40;0.40;;;16.60;99.90;;;;;;4408478;32;20078;-65
2023/07/20 04:48:11;;;;;;;1.25;0.60;;;16.60;99.90;;;;;;4411301;32;20402;-66
2023/07/20 04:50:37;;;;;;;1.17;0.77;;;16.50;99.90;;;;;;4388499;32;20086;-65
2023/07/20 04:53:03;;;;;;;0.73;0.62;;;16.60;99.90;;;;;;4407380;32;20077;-66
2023/07/20 04:55:28;;;;;;;0.55;0.55;;;16.50;99.90;;;;;;4402938;32;20073;-65
2023/07/20 04:57:54;;;;;;;1.00;0.80;;;16.50;99.90;;;;;;4407530;32;20586;-66
2023/07/20 05:00:21;;;;;;;0.57;0.57;;;16.50;99.90;;;;;;4412698;32;20085;-66
2023/07/20 05:02:48;;;;;;;0.30;0.30;;;16.60;99.90;;;;;;4403177;32;20125;-66
2023/07/20 05:05:14;;;;;;;0.43;0.40;;;16.60;99.90;;;;;;4405812;32;20085;-65
2023/07/20 05:07:40;;;;;;;0.50;0.50;;;16.60;99.90;;;;;;4405991;32;20070;-66
2023/07/20 05:10:06;;;;;;;0.57;0.57;;;16.70;99.90;;;;;;4406068;32;20137;-63
2023/07/20 05:12:31;;;;;;;2.75;0.70;;;16.60;99.90;;;;;;4398454;32;20121;-65
2023/07/20 05:14:57;;;;;;;0.40;0.40;;;16.60;99.90;;;;;;4402407;32;20078;-64
2023/07/20 05:17:23;;;;;;;0.50;0.50;;;16.60;99.90;;;;;;4404101;32;20069;-64
2023/07/20 05:19:48;;;;;;;0.70;0.43;;;16.80;99.90;;;;;;4400041;32;20427;-64
2023/07/20 05:22:14;;;;;;;0.40;0.40;;;16.80;99.90;;;;;;4408439;32;20102;-64
2023/07/20 05:24:40;;;;;;;0.52;0.52;;;16.90;99.90;;;;;;4409975;32;20113;-65
2023/07/20 05:27:05;;;;;;;3.80;0.70;;;16.90;99.90;;;;;;4409432;32;20475;-64
2023/07/20 05:29:31;;;;;;;0.47;0.47;;;16.90;99.90;;;;;;4400368;32;20081;-65
2023/07/20 05:31:57;;;;;;;0.22;0.22;;;16.90;99.90;;;;;;4402732;32;20063;-65
2023/07/20 05:34:22;;;;;;;0.50;0.50;;;16.90;99.90;;;;;;4413737;32;20057;-67
2023/07/20 05:36:48;;;;;;;0.90;0.55;;;16.90;99.90;;;;;;4406959;32;20090;-65
2023/07/20 05:39:13;;;;;;;0.40;0.40;;;16.90;99.90;;;;;;4402247;32;20088;-66
2023/07/20 05:41:39;;;;;;;0.40;0.40;;;16.90;99.90;;;;;;4403445;32;20083;-64
2023/07/20 05:44:04;;;;;;;0.40;0.40;;;16.90;99.90;;;;;;4407807;32;20402;-65
2023/07/20 05:46:30;;;;;;;0.60;0.60;;;17.00;99.90;;;;;;4400683;32;20098;-64
2023/07/20 05:48:55;;;;;;;0.73;0.60;;;17.10;99.90;;;;;;4407100;32;20069;-64
2023/07/20 05:51:20;;;;;;;0.43;0.43;;;17.00;99.90;;;;;;4386325;32;20496;-65
2023/07/20 05:53:46;;;;;;;0.98;0.88;;;17.00;99.90;;;;;;4395002;32;20071;-65
2023/07/20 05:56:14;;;;;;;0.30;0.30;;;17.00;99.90;;;;;;4396790;32;20077;-65
2023/07/20 05:58:39;;;;;;;0.40;0.40;;;16.90;99.90;;;;;;4387998;32;20189;-64
2023/07/20 06:01:06;;;;;;;0.62;0.50;;;17.00;99.90;;;;;;4380115;32;20097;-65
2023/07/20 06:03:33;;;;;;;2.17;1.10;;;17.00;99.90;;;;;;4395240;32;20054;-65
2023/07/20 06:06:00;;;;;;;0.93;0.70;;;17.00;99.90;;;;;;4392000;32;20058;-65
2023/07/20 06:08:27;;;;;;;0.50;0.50;;;17.10;99.90;;;;;;4384114;32;20062;-66
2023/07/20 06:10:52;;;;;;;0.40;0.40;;;17.10;99.90;;;;;;4387474;32;20063;-65
2023/07/20 06:13:18;;;;;;;0.40;0.40;;;17.00;99.90;;;;;;4397147;32;20070;-65
2023/07/20 06:15:43;;;;;;;0.68;0.45;;;17.10;99.90;;;;;;4396718;32;20427;-66
2023/07/20 06:18:09;;;;;;;0.35;0.35;;;17.10;99.90;;;;;;4390309;32;20062;-65
2023/07/20 06:20:34;;;;;;;1.85;0.40;;;17.10;99.90;;;;;;4388232;32;20082;-64
2023/07/20 06:23:00;;;;;;;0.93;0.60;;;17.10;99.90;;;;;;4388029;32;20186;-65
2023/07/20 06:25:26;;;;;;;0.82;0.68;;;17.20;99.90;;;;;;4390717;32;20066;-65
2023/07/20 06:27:51;;;;;;;0.45;0.45;;;17.30;99.90;;;;;;4386526;32;20054;-65
2023/07/20 06:30:17;;;;;;;6.62;1.05;;;17.40;99.90;;;;;;4382157;32;20082;-64
2023/07/20 06:32:43;;;;;;;0.50;0.50;;;17.40;99.90;;;;;;4388446;32;20511;-64
2023/07/20 06:35:08;;;;;;;0.73;0.73;;;17.40;99.90;;;;;;4389791;32;20078;-66
2023/07/20 06:37:35;;;;;;;0.50;0.50;;;17.40;99.90;;;;;;4374544;32;20090;-65
2023/07/20 06:40:02;;;;;;;0.70;0.70;;;17.50;99.90;;;;;;4389011;32;20069;-66
2023/07/20 06:42:27;;;;;;;0.32;0.32;;;17.40;99.90;;;;;;4391359;32;20066;-66
2023/07/20 06:44:53;;;;;;;0.50;0.50;;;17.30;99.90;;;;;;4390128;32;20078;-65
2023/07/20 06:47:18;;;;;;;1.85;0.68;;;17.30;99.90;;;;;;4386977;32;20078;-66
2023/07/20 06:49:44;;;;;;;0.70;0.47;;;17.20;99.90;;;;;;4387168;32;20119;-65
2023/07/20 06:52:09;;;;;;;0.80;0.77;;;17.20;99.90;;;;;;4397710;32;20125;-66
2023/07/20 06:54:35;;;;;;;0.40;0.40;;;17.30;99.90;;;;;;4401807;32;20135;-66
2023/07/20 06:57:00;;;;;;;0.73;0.40;;;17.30;99.90;;;;;;4397306;32;20517;-66
2023/07/20 06:59:26;;;;;;;0.85;0.70;;;17.40;99.90;;;;;;4401069;32;20102;-66
2023/07/20 07:01:51;;;;;;;0.45;0.45;;;17.50;99.90;;;;;;4408003;32;20132;-66
2023/07/20 07:04:16;;;;;;;0.45;0.40;;;17.70;99.90;;;;;;4402193;32;20192;-64
2023/07/20 07:06:43;;;;;;;0.30;0.30;;;17.80;99.90;;;;;;4401716;32;20399;-65
2023/07/20 07:09:08;;;;;;;0.45;0.25;;;17.80;99.90;;;;;;4405963;32;20102;-63
2023/07/20 07:11:34;;;;;;;0.22;0.22;;;17.60;99.90;;;;;;4393623;32;20070;-65
2023/07/20 07:13:59;;;;;;;0.68;0.47;;;17.60;99.90;;;;;;4399845;32;20133;-66
2023/07/20 07:16:25;;;;;;;0.30;0.30;;;17.70;99.90;;;;;;4411400;32;20070;-65
2023/07/20 07:18:51;;;;;;;0.30;0.30;;;17.90;99.90;;;;;;4401288;32;20078;-65
2023/07/20 07:21:16;;;;;;;0.40;0.40;;;18.10;99.90;;;;;;4392745;32;20061;-65
2023/07/20 07:23:43;;;;;;;0.50;0.50;;;18.20;99.90;;;;;;4398271;32;20106;-66
2023/07/20 07:26:09;;;;;;;0.20;0.20;;;18.30;99.90;;;;;;4398374;32;20069;-66
2023/07/20 07:28:35;;;;;;;0.30;0.30;;;18.40;99.90;;;;;;4400526;32;20066;-66
2023/07/20 07:31:00;;;;;;;1.65;0.85;;;18.40;99.90;;;;;;4395266;32;20074;-65
2023/07/20 07:33:26;;;;;;;0.20;0.20;;;18.50;99.90;;;;;;4399406;32;20089;-66
2023/07/20 07:35:53;;;;;;;0.30;0.30;;;18.50;99.90;;;;;;4405258;32;20086;-65
2023/07/20 07:38:19;;;;;;;0.25;0.25;;;18.50;99.90;;;;;;4400496;32;20082;-66
2023/07/20 07:40:44;;;;;;;0.20;0.20;;;18.40;99.90;;;;;;4397348;32;20074;-66
2023/07/20 07:43:10;;;;;;;0.37;0.37;;;18.40;99.90;;;;;;4404379;32;20693;-64
2023/07/20 07:45:37;;;;;;;0.20;0.20;;;18.30;99.90;;;;;;4398050;32;20064;-65
2023/07/20 07:48:03;;;;;;;0.25;0.25;;;18.30;99.90;;;;;;4407265;32;20070;-65
2023/07/20 07:50:29;;;;;;;0.30;0.30;;;18.50;99.90;;;;;;4413646;32;20461;-66
2023/07/20 07:52:55;;;;;;;0.37;0.37;;;18.90;99.90;;;;;;4400519;32;20081;-65
2023/07/20 07:55:20;;;;;;;0.30;0.30;;;19.10;99.90;;;;;;4402866;32;20128;-66
2023/07/20 07:57:47;;;;;;;0.40;0.40;;;19.20;99.90;;;;;;4399963;32;20097;-66
2023/07/20 08:00:14;;;;;;;0.20;0.20;;;19.10;99.90;;;;;;4399444;32;20070;-66
2023/07/20 08:02:41;;;;;;;0.10;0.10;;;19.10;99.90;;;;;;4404823;32;20057;-65
2023/07/20 08:05:07;;;;;;;0.20;0.20;;;19.00;99.90;;;;;;4399058;32;20066;-66
2023/07/20 08:07:33;;;;;;;0.30;0.30;;;19.10;99.90;;;;;;4406899;32;20143;-66
2023/07/20 08:09:59;;;;;;;1.10;0.32;;;19.10;99.90;;;;;;4403838;32;20070;-66
2023/07/20 08:12:24;;;;;;;0.20;0.20;;;19.10;99.90;;;;;;4403951;32;20082;-65
2023/07/20 08:14:51;;;;;;;0.28;0.28;;;19.00;99.90;;;;;;4399949;32;20506;-66
2023/07/20 08:17:16;;;;;;;0.20;0.20;;;18.80;99.90;;;;;;4403722;32;20431;-65
2023/07/20 08:19:42;;;;;;;0.32;0.32;;;18.70;99.90;;;;;;4390059;32;20079;-70
2023/07/20 08:22:07;;;;;;;0.30;0.30;;;18.70;99.90;;;;;;4402326;32;20071;-64
2023/07/20 08:24:33;;;;;;;0.30;0.30;;;18.70;99.90;;;;;;4400439;32;20094;-65
2023/07/20 08:26:59;;;;;;;0.20;0.20;;;18.80;99.90;;;;;;4407308;32;20070;-64
2023/07/20 08:29:24;;;;;;;0.28;0.28;;;18.80;99.90;;;;;;4403048;32;20417;-65
2023/07/20 08:31:50;;;;;;;0.20;0.20;;;19.00;99.90;;;;;;4402975;32;20069;-64
2023/07/20 08:34:15;;;;;;;0.20;0.20;;;19.10;99.90;;;;;;4404634;32;20074;-65
2023/07/20 08:36:41;;;;;;;0.20;0.20;;;19.20;99.90;;;;;;4402832;32;20069;-64
2023/07/20 08:39:07;;;;;;;0.30;0.30;;;19.40;99.90;;;;;;4408969;32;20062;-64
2023/07/20 08:41:35;;;;;;;0.20;0.20;;;19.50;99.90;;;;;;4409169;32;20082;-64
2023/07/20 08:44:01;;;;;;;0.30;0.30;;;19.80;99.90;;;;;;4398522;32;20057;-65
2023/07/20 08:46:28;;;;;;;4.95;1.27;;;19.90;99.90;;;;;;4402247;32;20090;-65
2023/07/20 08:48:56;;;;;;;0.20;0.20;;;19.80;99.90;;;;;;4405919;32;20073;-64
2023/07/20 08:51:22;;;;;;;0.40;0.40;;;19.80;99.90;;;;;;4399154;32;20062;-66
2023/07/20 08:53:49;;;;;;;0.28;0.28;;;20.10;99.90;;;;;;4398536;32;20133;-62
2023/07/20 08:56:16;;;;;;;0.30;0.30;;;20.10;99.90;;;;;;4403178;32;20062;-65
2023/07/20 08:58:43;;;;;;;0.20;0.20;;;20.10;99.90;;;;;;4403916;32;20078;-65
2023/07/20 09:01:10;;;;;;;0.20;0.20;;;19.70;99.90;;;;;;4398988;32;20085;-65
2023/07/20 09:03:39;;;;;;;0.20;0.20;;;19.60;99.90;;;;;;4405742;32;20061;-65
2023/07/20 09:06:05;;;;;;;0.20;0.20;;;19.80;99.90;;;;;;4398416;32;20122;-67
2023/07/20 09:08:31;;;;;;;0.20;0.20;;;20.10;99.90;;;;;;4396837;32;20145;-65
2023/07/20 09:10:56;;;;;;;0.30;0.30;;;20.20;99.90;;;;;;4405502;32;20136;-66
2023/07/20 09:13:22;;;;;;;1.12;0.43;;;20.40;99.90;;;;;;4408086;32;20097;-66
2023/07/20 09:15:53;;;;;;;0.30;0.30;;;20.20;99.90;;;;;;4411343;32;20086;-66
2023/07/20 09:18:27;;;;;;;;;;;20.20;99.90;;;;;;4403381;32;20162;-65
2023/07/20 09:20:58;;;;;;;0.30;0.30;;;20.50;99.90;;;;;;4406028;32;19958;-65
2023/07/20 09:23:33;;;;;;;0.20;0.20;;;20.60;99.90;;;;;;4407727;32;20466;-65
2023/07/20 09:25:59;;;;;;;0.20;0.20;;;20.60;99.90;;;;;;4396086;32;20445;-64
2023/07/20 09:28:25;;;;;;;0.40;0.40;;;20.50;99.90;;;;;;4399086;32;20933;-66
2023/07/20 09:30:51;;;;;;;0.30;0.30;;;20.60;99.90;;;;;;4400654;32;20427;-65
2023/07/20 09:33:24;;;;;;;0.30;0.30;;;20.60;99.90;;;;;;4400769;32;20152;-67
2023/07/20 09:35:50;;;;;;;0.30;0.30;;;20.50;99.90;;;;;;4398103;32;20136;-65
2023/07/20 09:38:16;;;;;;;0.22;0.22;;;20.40;99.90;;;;;;4404938;32;20066;-65
2023/07/20 09:40:42;;;;;;;0.20;0.20;;;20.30;99.90;;;;;;4410040;32;20143;-64
2023/07/20 09:43:10;;;;;;;0.20;0.20;;;20.40;99.90;;;;;;4402555;32;20491;-65
2023/07/20 09:45:41;;;;;;;0.20;0.20;;;20.50;99.90;;;;;;4397727;32;20137;-65
2023/07/20 09:48:07;;;;;;;0.20;0.20;;;20.60;99.90;;;;;;4400114;32;20075;-65
2023/07/20 09:50:33;;;;;;;0.20;0.20;;;20.60;99.90;;;;;;4403914;32;20062;-64
2023/07/20 09:53:02;;;;;;;0.25;0.25;;;20.70;99.90;;;;;;4413062;32;20103;-64
2023/07/20 09:55:28;;;;;;;0.20;0.20;;;20.70;99.90;;;;;;4399835;32;20098;-66
2023/07/20 09:57:55;;;;;;;0.20;0.20;;;20.80;99.90;;;;;;4409798;32;20212;-64
2023/07/20 10:00:21;;;;;;;0.30;0.30;;;20.60;99.90;;;;;;4406985;32;20077;-65
2023/07/20 10:02:47;;;;;;;0.30;0.30;;;20.50;99.90;;;;;;4408301;32;20101;-64
2023/07/20 10:05:14;;;;;;;0.20;0.20;;;20.30;99.90;;;;;;4412111;32;20145;-64
2023/07/20 10:07:46;;;;;;;0.32;0.32;;;20.20;99.90;;;;;;4408051;32;20156;-65
2023/07/20 10:10:14;;;;;;;0.30;0.30;;;20.10;99.90;;;;;;4412547;32;20086;-64
2023/07/20 10:12:41;;;;;;;0.20;0.20;;;20.00;99.90;;;;;;4409310;32;20658;-65
2023/07/20 10:15:13;;;;;;;0.37;0.37;;;19.90;99.90;;;;;;4411914;32;20065;-63
2023/07/20 10:17:49;;;;;;;0.25;0.25;;;19.80;99.90;;;;;;4408793;32;20135;-65
2023/07/20 10:20:19;;;;;;;0.30;0.30;;;19.90;99.90;;;;;;4409436;32;20074;-65
2023/07/20 10:22:46;;;;;;;0.40;0.40;;;19.90;99.90;;;;;;4412336;32;20077;-63
2023/07/20 10:25:13;;;;;;;0.20;0.20;;;20.00;99.90;;;;;;4411741;32;20120;-65
2023/07/20 10:27:40;;;;;;;0.32;0.32;;;20.40;99.90;;;;;;4399205;32;20070;-65
2023/07/20 10:30:06;;;;;;;0.20;0.20;;;20.90;99.90;;;;;;4406608;32;20074;-65
2023/07/20 10:32:32;;;;;;;0.93;0.40;;;21.20;99.90;;;;;;4410545;32;20754;-65
2023/07/20 10:34:58;;;;;;;0.20;0.20;;;21.50;99.90;;;;;;4407646;32;20148;-65
2023/07/20 10:38:03;;;;;;;0.20;0.20;;;21.50;99.90;;;;;;4411737;32;20081;-65
2023/07/20 10:40:32;;;;;;;0.28;0.28;;;21.40;99.90;;;;;;4376946;32;20091;-65
2023/07/20 10:43:00;;;;;;;0.30;0.30;;;21.10;99.90;;;;;;4398957;32;20058;-65
2023/07/20 10:45:35;;;;;;;0.40;0.40;;;21.00;99.90;;;;;;4413313;32;20491;-64
2023/07/20 10:48:04;;;;;;;0.30;0.30;;;20.80;99.90;;;;;;4410843;32;20085;-65
2023/07/20 10:50:30;;;;;;;0.20;0.20;;;20.60;99.90;;;;;;4385836;32;20070;-65
2023/07/20 10:53:16;;;;;;;0.30;0.30;;;20.50;99.90;;;;;;4387309;32;20066;-65
2023/07/20 10:55:43;;;;;;;0.20;0.20;;;20.50;99.90;;;;;;4377063;32;20070;-65
2023/07/20 10:58:11;;;;;;;0.28;0.28;;;20.50;99.90;;;;;;4372829;32;20565;-64
2023/07/20 11:00:37;;;;;;;0.20;0.20;;;20.40;99.90;;;;;;4395763;32;20124;-65
2023/07/20 11:03:02;;;;;;;0.30;0.30;;;20.40;99.90;;;;;;4389912;32;20066;-62
2023/07/20 11:05:43;;;;;;;0.22;0.22;;;20.30;99.90;;;;;;4384673;32;20065;-63
2023/07/20 11:08:11;;;;;;;;;;;20.30;99.90;;;;;;4375656;32;20062;-63
2023/07/20 11:10:36;;;;;;;0.52;0.52;;;20.30;99.90;;;;;;4385428;32;19950;-62
2023/07/20 11:13:19;;;;;;;0.35;0.35;;;20.30;99.90;;;;;;4387260;32;20138;-64
2023/07/20 11:15:47;;;;;;;0.47;0.47;;;20.20;99.90;;;;;;4383734;32;20094;-63
2023/07/20 11:18:13;;;;;;;0.28;0.28;;;20.10;99.90;;;;;;4381936;32;20077;-64
2023/07/20 11:20:39;;;;;;;0.40;0.40;;;20.10;99.90;;;;;;4382153;32;20074;-62
2023/07/20 11:23:05;;;;;;;0.40;0.40;;;20.10;99.90;;;;;;4388251;32;20121;-63
2023/07/20 11:25:46;;;;;;;0.20;0.20;;;19.90;99.90;;;;;;4395987;32;20069;-63
2023/07/20 11:28:12;;;;;;;1.08;0.73;;;19.80;99.90;;;;;;4389636;32;20081;-62
2023/07/20 11:30:38;;;;;;;0.20;0.20;;;19.70;99.90;;;;;;4367670;32;20384;-63
2023/07/20 11:33:05;;;;;;;0.20;0.20;;;19.70;99.90;;;;;;4384769;32;20224;-62
2023/07/20 11:35:31;;;;;;;0.30;0.30;;;19.70;99.90;;;;;;4378116;32;20137;-63
2023/07/20 11:37:56;;;;;;;0.30;0.30;;;19.80;99.90;;;;;;4393011;32;20101;-62
2023/07/20 11:40:22;;;;;;;0.30;0.30;;;19.90;99.90;;;;;;4390483;32;20121;-63
2023/07/20 11:42:50;;;;;;;0.20;0.20;;;20.00;99.90;;;;;;4390644;32;20098;-62
2023/07/20 11:45:17;;;;;;;0.20;0.20;;;20.10;99.90;;;;;;4379739;32;20063;-62
2023/07/20 11:47:43;;;;;;;0.20;0.20;;;20.20;99.90;;;;;;4381853;32;86963;-63
2023/07/20 11:50:09;;;;;;;5.68;1.08;;;20.10;99.90;;;;;;4386168;32;20144;-62
2023/07/20 11:52:35;;;;;;;0.20;0.20;;;20.10;99.90;;;;;;4396622;32;20098;-63
2023/07/20 11:55:01;;;;;;;0.35;0.35;;;20.80;99.90;;;;;;4409679;32;20522;-63
2023/07/20 11:57:26;;;;;;;5.72;0.40;;;21.60;99.90;;;;;;4399020;32;20058;-63
2023/07/20 12:00:00;;;;;;;0.20;0.20;;;21.80;99.90;;;;;;4407889;32;20101;-63
2023/07/20 12:02:27;;;;;;;0.20;0.20;;;22.00;99.90;;;;;;4396785;32;20063;-62
2023/07/20 12:04:54;;;;;;;0.10;0.10;;;22.00;99.90;;;;;;4406595;32;20522;-62
2023/07/20 12:07:20;;;;;;;6.80;0.62;;;22.10;99.90;;;;;;4402810;32;20058;-62
2023/07/20 12:10:06;;;;;;;0.30;0.30;;;22.10;99.90;;;;;;4407885;32;20158;-61
2023/07/20 12:12:34;;;;;;;0.30;0.30;;;21.90;99.90;;;;;;4405693;32;20066;-62
2023/07/20 12:15:21;;;;;;;0.30;0.30;;;21.90;99.90;;;;;;4404573;32;20098;-63
2023/07/20 12:17:50;;;;;;;0.20;0.20;;;21.90;99.90;;;;;;4397942;32;20050;-63
2023/07/20 12:20:26;;;;;;;0.10;0.10;;;21.80;99.90;;;;;;4408275;32;20053;-62
2023/07/20 12:22:52;;;;;;;0.20;0.20;;;21.40;99.90;;;;;;4401040;32;20133;-62
2023/07/20 12:25:19;;;;;;;0.20;0.20;;;21.20;99.90;;;;;;4397071;32;20526;-63
2023/07/20 12:27:46;;;;;;;0.20;0.20;;;20.90;99.90;;;;;;4405177;32;20061;-64
2023/07/20 12:30:13;;;;;;;0.22;0.22;;;20.90;99.90;;;;;;4407554;32;20054;-62
2023/07/20 12:32:39;;;;;;;0.20;0.20;;;21.10;99.90;;;;;;4399205;32;20150;-62
2023/07/20 12:35:04;;;;;;;0.20;0.20;;;21.20;99.90;;;;;;4403897;32;20129;-63
2023/07/20 12:37:30;;;;;;;0.25;0.25;;;21.20;99.90;;;;;;4406067;32;20055;-63
2023/07/20 12:39:55;;;;;;;0.20;0.20;;;21.30;99.90;;;;;;4409522;32;20115;-63
2023/07/20 12:42:22;;;;;;;0.30;0.30;;;21.50;99.90;;;;;;4404010;32;20511;-63
2023/07/20 12:44:49;;;;;;;0.20;0.20;;;21.50;99.90;;;;;;4408909;32;20551;-63
2023/07/20 12:47:15;;;;;;;0.22;0.22;;;21.70;99.90;;;;;;4407208;32;20470;-63